Time;durP1;ratioP1;P1;durP2;ratioP2;P2;SDS_P1;SDS_P2;PMS_P1;PMS_P2;Temp;Humidity;BMP_temperature;BMP_pressure;BME280_temperature;BME280_humidity;BME280_pressure;Samples;Min_cycle;Max_cycle;Signal;HPM_P1;HPM_P2
2022/10/27 00:01:44;;;;;;;13.70;12.70;;;15.90;48.60;;;;;;5041981;28;20284;-56
2022/10/27 00:04:09;;;;;;;13.37;12.43;;;15.90;48.00;;;;;;5042960;28;20517;-57
2022/10/27 00:06:36;;;;;;;13.70;12.70;;;15.90;47.90;;;;;;5042087;28;20964;-57
2022/10/27 00:09:02;;;;;;;14.10;13.00;;;15.90;48.00;;;;;;5041380;28;20180;-56
2022/10/27 00:11:28;;;;;;;14.10;13.00;;;16.00;48.20;;;;;;5041220;28;20422;-56
2022/10/27 00:13:53;;;;;;;12.60;11.90;;;16.00;47.50;;;;;;5044526;28;20414;-58
2022/10/27 00:16:19;;;;;;;13.70;12.33;;;16.00;47.40;;;;;;5045339;28;20245;-58
2022/10/27 00:18:45;;;;;;;13.40;12.50;;;16.00;47.40;;;;;;5045750;28;20692;-58
2022/10/27 00:21:17;;;;;;;12.77;11.77;;;16.00;47.30;;;;;;5042468;28;20184;-58
2022/10/27 00:23:42;;;;;;;13.27;12.13;;;16.00;47.10;;;;;;5046853;28;20499;-58
2022/10/27 00:26:11;;;;;;;14.10;13.20;;;15.90;46.80;;;;;;5045639;28;20461;-58
2022/10/27 00:28:38;;;;;;;14.07;12.43;;;15.90;47.10;;;;;;5044498;28;20233;-58
2022/10/27 00:31:10;;;;;;;12.67;11.97;;;15.90;47.30;;;;;;5044449;28;20694;-58
2022/10/27 00:33:36;;;;;;;13.33;12.53;;;15.90;47.00;;;;;;5044320;28;20410;-58
2022/10/27 00:36:07;;;;;;;13.20;12.40;;;15.90;46.80;;;;;;5045294;28;20418;-58
2022/10/27 00:38:33;;;;;;;14.00;12.80;;;15.90;46.80;;;;;;5043540;28;20215;-58
2022/10/27 00:40:59;;;;;;;14.80;13.50;;;15.60;47.40;;;;;;5045496;28;20430;-58
2022/10/27 00:43:43;;;;;;;14.40;13.13;;;15.40;48.60;;;;;;5044488;28;20768;-58
2022/10/27 00:46:34;;;;;;;13.97;12.87;;;15.40;49.30;;;;;;5044106;28;20425;-58
2022/10/27 00:49:14;;;;;;;12.40;11.80;;;15.40;49.60;;;;;;5043749;28;20927;-57
2022/10/27 00:51:44;;;;;;;13.57;12.97;;;15.50;49.10;;;;;;5043806;28;20410;-59
2022/10/27 00:54:11;;;;;;;13.20;12.60;;;15.50;48.50;;;;;;5044657;28;20509;-59
2022/10/27 00:56:38;;;;;;;13.57;12.40;;;15.60;48.40;;;;;;5043911;28;20446;-59
2022/10/27 00:59:04;;;;;;;13.83;12.77;;;15.60;48.40;;;;;;5043918;28;20406;-59
2022/10/27 01:01:31;;;;;;;13.13;12.47;;;15.60;48.90;;;;;;5047006;28;20407;-56
2022/10/27 01:03:57;;;;;;;14.20;13.17;;;15.60;47.90;;;;;;5044077;28;20422;-58
2022/10/27 01:06:23;;;;;;;14.30;13.20;;;15.60;47.50;;;;;;5043275;28;20422;-56
2022/10/27 01:08:50;;;;;;;14.50;13.33;;;15.60;47.80;;;;;;5043380;28;20418;-57
2022/10/27 01:11:15;;;;;;;14.00;12.83;;;15.60;46.80;;;;;;5044094;28;20441;-56
2022/10/27 01:13:41;;;;;;;13.97;12.93;;;15.40;47.90;;;;;;5044337;28;20422;-56
2022/10/27 01:16:13;;;;;;;13.93;12.90;;;15.40;48.70;;;;;;5042461;28;20187;-57
2022/10/27 01:18:42;;;;;;;13.17;12.37;;;15.40;48.10;;;;;;5044366;28;20465;-57
2022/10/27 01:21:30;;;;;;;13.67;12.83;;;15.50;48.20;;;;;;5043055;28;20611;-57
2022/10/27 01:24:27;;;;;;;13.43;12.67;;;15.50;47.80;;;;;;5044254;28;20422;-57
2022/10/27 01:26:58;;;;;;;14.20;12.87;;;15.60;47.70;;;;;;5043341;28;20414;-57
2022/10/27 01:29:56;;;;;;;12.60;12.00;;;15.60;47.60;;;;;;5042885;28;20434;-57
2022/10/27 01:32:53;;;;;;;12.53;11.67;;;15.60;47.10;;;;;;5042842;28;20415;-56
2022/10/27 01:35:56;;;;;;;13.33;12.60;;;15.70;47.00;;;;;;5042399;28;20415;-56
2022/10/27 01:38:28;;;;;;;12.63;12.07;;;15.60;46.90;;;;;;5044253;28;20822;-58
2022/10/27 01:41:12;;;;;;;13.40;12.60;;;15.60;46.60;;;;;;5041891;28;20430;-58
2022/10/27 01:43:38;;;;;;;13.57;12.50;;;15.60;46.60;;;;;;5042151;28;20476;-56
2022/10/27 01:46:07;;;;;;;14.03;13.23;;;15.60;46.50;;;;;;5043081;28;20414;-57
2022/10/27 01:48:35;;;;;;;15.13;13.93;;;15.60;46.50;;;;;;5042611;28;20433;-57
2022/10/27 01:51:01;;;;;;;14.63;13.53;;;15.60;46.50;;;;;;5041703;28;20414;-55
2022/10/27 01:53:31;;;;;;;14.43;13.33;;;15.60;46.50;;;;;;5043567;28;20426;-56
2022/10/27 01:56:03;;;;;;;14.00;13.10;;;15.70;46.60;;;;;;5042253;28;20422;-55
2022/10/27 01:58:46;;;;;;;13.73;12.83;;;15.50;45.90;;;;;;5040873;28;20462;-55
2022/10/27 02:01:55;;;;;;;15.10;13.50;;;15.30;47.40;;;;;;5043120;28;20410;-56
2022/10/27 02:04:33;;;;;;;13.17;12.30;;;15.00;48.20;;;;;;5042050;28;20417;-55
2022/10/27 02:07:32;;;;;;;14.43;13.30;;;15.10;48.30;;;;;;5043476;28;20413;-58
2022/10/27 02:10:03;;;;;;;14.47;13.57;;;15.20;48.20;;;;;;5048487;28;20865;-58
2022/10/27 02:12:35;;;;;;;12.90;12.20;;;15.20;47.80;;;;;;5042146;28;20914;-57
2022/10/27 02:15:05;;;;;;;14.13;13.43;;;15.30;47.80;;;;;;5041259;28;20422;-59
2022/10/27 02:17:37;;;;;;;13.40;12.63;;;15.30;47.30;;;;;;5042316;28;20575;-59
2022/10/27 02:20:07;;;;;;;14.40;13.40;;;15.40;47.20;;;;;;5040538;28;20418;-59
2022/10/27 02:22:35;;;;;;;13.43;12.83;;;15.40;47.10;;;;;;5040460;28;20414;-59
2022/10/27 02:25:01;;;;;;;15.80;13.63;;;15.30;46.60;;;;;;5040830;28;20470;-65
2022/10/27 02:27:32;;;;;;;14.33;13.30;;;15.40;46.90;;;;;;5039215;28;20426;-59
2022/10/27 02:30:00;;;;;;;12.83;12.03;;;15.40;46.70;;;;;;5041250;28;20961;-59
2022/10/27 02:32:28;;;;;;;13.67;12.87;;;15.40;46.30;;;;;;5041010;28;20817;-59
2022/10/27 02:34:55;;;;;;;13.80;13.00;;;15.40;46.40;;;;;;5040125;28;21014;-59
2022/10/27 02:37:35;;;;;;;12.87;12.07;;;15.40;46.30;;;;;;5038755;28;20473;-59
2022/10/27 02:40:02;;;;;;;12.77;12.17;;;15.40;46.40;;;;;;5023442;28;20499;-59
2022/10/27 02:42:28;;;;;;;13.70;12.90;;;15.40;46.30;;;;;;5039385;28;20419;-59
2022/10/27 02:44:53;;;;;;;13.60;13.00;;;15.30;46.30;;;;;;5042057;28;20484;-59
2022/10/27 02:47:19;;;;;;;13.83;12.90;;;15.30;46.30;;;;;;5041712;28;20279;-59
2022/10/27 02:49:45;;;;;;;14.20;13.20;;;15.30;46.30;;;;;;5040904;28;20180;-58
2022/10/27 02:52:12;;;;;;;13.93;12.77;;;15.20;46.20;;;;;;5038982;28;20426;-58
2022/10/27 02:54:38;;;;;;;14.50;13.70;;;15.20;46.60;;;;;;5039985;28;20537;-58
2022/10/27 02:57:04;;;;;;;14.30;13.37;;;15.20;46.20;;;;;;5041109;28;20466;-58
2022/10/27 02:59:29;;;;;;;14.00;13.37;;;15.30;46.30;;;;;;5042237;28;20417;-59
2022/10/27 03:01:55;;;;;;;13.70;12.80;;;15.30;46.30;;;;;;5043074;28;20542;-59
2022/10/27 03:04:20;;;;;;;15.77;13.77;;;15.30;46.30;;;;;;5042278;28;20184;-59
2022/10/27 03:06:46;;;;;;;14.70;13.60;;;15.30;46.30;;;;;;5040661;28;20681;-59
2022/10/27 03:09:12;;;;;;;14.60;13.83;;;15.30;46.30;;;;;;5043107;28;20180;-58
2022/10/27 03:11:38;;;;;;;14.57;13.67;;;15.20;46.20;;;;;;5041022;28;20210;-58
2022/10/27 03:14:03;;;;;;;14.67;13.70;;;15.20;46.20;;;;;;5042257;28;20183;-58
2022/10/27 03:16:29;;;;;;;14.83;14.00;;;15.30;46.30;;;;;;5043672;28;20183;-57
2022/10/27 03:18:55;;;;;;;14.90;13.70;;;15.20;46.20;;;;;;5043994;28;20739;-57
2022/10/27 03:21:20;;;;;;;14.03;13.27;;;15.30;46.30;;;;;;5042316;28;20201;-57
2022/10/27 03:23:46;;;;;;;15.70;14.30;;;15.30;46.30;;;;;;5043305;28;20679;-57
2022/10/27 03:26:12;;;;;;;14.43;13.53;;;15.20;46.20;;;;;;5042834;28;20617;-57
2022/10/27 03:28:37;;;;;;;15.03;13.97;;;15.20;46.20;;;;;;5044791;28;20187;-57
2022/10/27 03:31:04;;;;;;;14.80;14.10;;;15.30;46.10;;;;;;5042281;28;20192;-57
2022/10/27 03:33:30;;;;;;;14.87;13.90;;;15.30;46.30;;;;;;5046124;28;20245;-57
2022/10/27 03:35:55;;;;;;;14.40;13.50;;;15.30;45.60;;;;;;5044990;28;20876;-58
2022/10/27 03:38:21;;;;;;;14.30;13.30;;;15.20;46.10;;;;;;5045362;28;20216;-58
2022/10/27 03:40:47;;;;;;;15.60;14.60;;;15.20;46.00;;;;;;5046989;28;20179;-57
2022/10/27 03:43:12;;;;;;;13.67;13.00;;;15.20;45.70;;;;;;5046232;28;20551;-58
2022/10/27 03:45:38;;;;;;;14.57;13.43;;;15.20;45.30;;;;;;5048477;28;20180;-57
2022/10/27 03:48:06;;;;;;;14.10;12.97;;;15.20;45.90;;;;;;5045478;28;20274;-58
2022/10/27 03:50:32;;;;;;;13.77;12.90;;;15.20;46.20;;;;;;5044303;28;20184;-58
2022/10/27 03:52:58;;;;;;;14.53;13.73;;;15.20;46.20;;;;;;5048712;28;20423;-58
2022/10/27 03:55:24;;;;;;;20.47;13.60;;;15.10;46.10;;;;;;5045975;28;20448;-58
2022/10/27 03:57:50;;;;;;;14.50;13.70;;;15.10;46.10;;;;;;5047051;28;20454;-58
2022/10/27 04:00:17;;;;;;;14.67;13.70;;;15.10;46.10;;;;;;5047312;28;20275;-58
2022/10/27 04:02:43;;;;;;;15.00;14.20;;;15.10;46.00;;;;;;5049173;28;20176;-58
2022/10/27 04:05:09;;;;;;;15.60;14.50;;;15.10;45.90;;;;;;5050561;28;20456;-58
2022/10/27 04:07:34;;;;;;;14.90;13.80;;;15.10;45.40;;;;;;5046449;28;20691;-57
2022/10/27 04:10:00;;;;;;;15.50;14.60;;;15.10;45.70;;;;;;5048062;28;20188;-58
2022/10/27 04:12:26;;;;;;;14.97;13.57;;;15.10;45.90;;;;;;5049750;28;20190;-58
2022/10/27 04:14:51;;;;;;;15.07;13.90;;;15.20;45.70;;;;;;5048224;28;20183;-58
2022/10/27 04:17:17;;;;;;;14.40;13.53;;;15.20;45.20;;;;;;5047799;28;20207;-58
2022/10/27 04:19:43;;;;;;;17.60;12.77;;;15.10;45.10;;;;;;5050048;28;20188;-58
2022/10/27 04:22:09;;;;;;;15.70;14.50;;;15.10;45.20;;;;;;5047624;28;20957;-60
2022/10/27 04:24:34;;;;;;;14.70;13.80;;;15.10;45.40;;;;;;5048177;28;20180;-59
2022/10/27 04:27:00;;;;;;;14.83;13.63;;;15.00;45.30;;;;;;5048310;28;20278;-59
2022/10/27 04:29:26;;;;;;;15.27;13.80;;;15.00;46.00;;;;;;5048969;28;20196;-59
2022/10/27 04:31:51;;;;;;;13.73;12.93;;;15.00;45.60;;;;;;5047368;28;20187;-60
2022/10/27 04:34:17;;;;;;;13.13;12.23;;;15.00;45.70;;;;;;5048227;28;20183;-59
2022/10/27 04:36:43;;;;;;;14.47;13.47;;;15.00;45.40;;;;;;5050349;28;20273;-59
2022/10/27 04:39:12;;;;;;;16.43;15.10;;;15.00;45.40;;;;;;5049219;28;20180;-59
2022/10/27 04:41:39;;;;;;;14.30;13.27;;;15.00;45.60;;;;;;5048731;28;20180;-59
2022/10/27 04:44:04;;;;;;;13.60;13.00;;;15.00;46.00;;;;;;5048849;28;20422;-59
2022/10/27 04:46:30;;;;;;;14.43;13.37;;;15.00;45.50;;;;;;5050255;28;20783;-59
2022/10/27 04:48:56;;;;;;;14.80;14.00;;;14.90;45.90;;;;;;5049318;28;20184;-59
2022/10/27 04:51:21;;;;;;;14.10;13.30;;;15.00;46.00;;;;;;5048560;28;20190;-59
2022/10/27 04:53:47;;;;;;;15.53;14.33;;;15.00;46.20;;;;;;5048514;28;20266;-59
2022/10/27 04:56:15;;;;;;;17.00;14.00;;;15.00;46.00;;;;;;5049214;28;20183;-59
2022/10/27 04:58:41;;;;;;;14.90;13.90;;;14.90;45.90;;;;;;5049734;28;20214;-59
2022/10/27 05:01:08;;;;;;;15.30;13.80;;;14.90;46.00;;;;;;5050513;28;20509;-59
2022/10/27 05:03:34;;;;;;;14.03;13.23;;;14.80;45.90;;;;;;5050634;28;20655;-59
2022/10/27 05:06:00;;;;;;;14.90;13.90;;;14.80;46.20;;;;;;5052117;28;20422;-59
2022/10/27 05:08:25;;;;;;;14.60;13.70;;;14.80;45.90;;;;;;5052437;28;20179;-59
2022/10/27 05:10:51;;;;;;;23.47;13.33;;;14.90;45.90;;;;;;5047390;28;20809;-59
2022/10/27 05:13:17;;;;;;;13.30;12.50;;;14.80;45.80;;;;;;5044758;28;20551;-59
2022/10/27 05:15:42;;;;;;;15.30;14.20;;;14.90;45.90;;;;;;5051409;28;20259;-58
2022/10/27 05:18:08;;;;;;;15.43;14.43;;;14.90;46.00;;;;;;5050273;28;20294;-59
2022/10/27 05:20:33;;;;;;;14.30;13.53;;;14.90;46.00;;;;;;5049985;28;20696;-58
2022/10/27 05:22:59;;;;;;;15.23;14.10;;;14.90;45.90;;;;;;5052840;28;20267;-58
2022/10/27 05:25:25;;;;;;;14.73;14.03;;;14.80;45.80;;;;;;5050245;28;20558;-55
2022/10/27 05:27:51;;;;;;;15.53;14.33;;;14.80;45.80;;;;;;5045040;28;20190;-55
2022/10/27 05:30:16;;;;;;;14.40;13.53;;;14.80;45.90;;;;;;5047867;28;20195;-55
2022/10/27 05:32:42;;;;;;;15.40;14.40;;;14.80;45.80;;;;;;5048849;28;20708;-55
2022/10/27 05:35:08;;;;;;;15.20;14.20;;;14.80;45.90;;;;;;5045848;28;20558;-55
2022/10/27 05:37:34;;;;;;;14.20;13.40;;;14.80;45.80;;;;;;5050583;28;20229;-55
2022/10/27 05:40:00;;;;;;;15.13;13.70;;;14.80;45.80;;;;;;5050059;28;20496;-56
2022/10/27 05:42:26;;;;;;;14.77;13.70;;;14.80;45.80;;;;;;5048794;28;20705;-55
2022/10/27 05:44:51;;;;;;;15.50;14.30;;;14.80;45.80;;;;;;5048777;28;20203;-54
2022/10/27 05:47:17;;;;;;;14.63;13.60;;;14.80;45.80;;;;;;5048431;28;20465;-55
2022/10/27 05:49:43;;;;;;;14.93;14.00;;;14.80;45.90;;;;;;5049519;28;20188;-55
2022/10/27 05:52:08;;;;;;;14.70;13.77;;;14.80;45.80;;;;;;5049469;28;20422;-55
2022/10/27 05:54:34;;;;;;;15.73;14.30;;;14.80;45.80;;;;;;5049683;28;20180;-56
2022/10/27 05:57:00;;;;;;;15.50;14.50;;;14.80;45.80;;;;;;5068579;28;20558;-56
2022/10/27 05:59:25;;;;;;;15.20;14.27;;;14.70;45.70;;;;;;5067215;28;20603;-55
2022/10/27 06:01:51;;;;;;;14.00;13.27;;;14.70;45.70;;;;;;5060103;28;20179;-55
2022/10/27 06:04:17;;;;;;;15.13;13.90;;;14.70;45.70;;;;;;5049945;28;20180;-56
2022/10/27 06:06:42;;;;;;;14.83;13.83;;;14.70;45.70;;;;;;5049021;28;20267;-54
2022/10/27 06:09:08;;;;;;;14.27;13.20;;;14.80;45.80;;;;;;5050512;28;20689;-54
2022/10/27 06:11:34;;;;;;;15.10;13.90;;;14.80;45.80;;;;;;5047051;28;20600;-56
2022/10/27 06:13:59;;;;;;;14.13;13.20;;;14.80;45.90;;;;;;5047235;28;20204;-56
2022/10/27 06:16:25;;;;;;;15.63;14.83;;;14.80;45.90;;;;;;5045868;28;20180;-55
2022/10/27 06:18:52;;;;;;;16.17;15.10;;;14.90;45.90;;;;;;5048025;28;20220;-56
2022/10/27 06:21:18;;;;;;;16.17;15.07;;;14.90;46.00;;;;;;5046716;28;20194;-55
2022/10/27 06:23:46;;;;;;;15.87;14.80;;;14.90;45.90;;;;;;5047983;28;20911;-55
2022/10/27 06:26:11;;;;;;;17.30;15.93;;;14.80;45.90;;;;;;5048702;28;20518;-55
2022/10/27 06:28:37;;;;;;;15.53;14.53;;;14.80;45.80;;;;;;5039678;28;20439;-55
2022/10/27 06:31:03;;;;;;;15.70;14.63;;;14.80;45.80;;;;;;5044064;28;20670;-54
2022/10/27 06:33:28;;;;;;;16.20;15.00;;;14.80;45.90;;;;;;5045067;28;20179;-55
2022/10/27 06:35:54;;;;;;;16.60;15.53;;;14.80;45.80;;;;;;5041250;28;20186;-56
2022/10/27 06:38:19;;;;;;;15.53;14.53;;;14.80;45.90;;;;;;5047052;28;20208;-56
2022/10/27 06:40:45;;;;;;;16.23;15.27;;;14.80;46.70;;;;;;5046005;28;20180;-54
2022/10/27 06:43:12;;;;;;;16.63;15.43;;;14.80;46.40;;;;;;5047449;28;20171;-55
2022/10/27 06:45:38;;;;;;;16.47;15.13;;;14.80;46.20;;;;;;5046601;28;20188;-56
2022/10/27 06:48:06;;;;;;;17.43;15.53;;;14.80;45.80;;;;;;5048366;28;20832;-55
2022/10/27 06:50:33;;;;;;;15.83;14.63;;;14.90;46.30;;;;;;5047588;28;20448;-56
2022/10/27 06:53:02;;;;;;;16.40;15.20;;;14.90;46.40;;;;;;5048587;28;20482;-55
2022/10/27 06:55:29;;;;;;;15.70;14.10;;;14.90;46.50;;;;;;5044933;28;20418;-56
2022/10/27 06:57:55;;;;;;;15.23;14.37;;;14.90;46.20;;;;;;5047173;28;21002;-56
2022/10/27 07:00:21;;;;;;;16.17;15.30;;;14.90;46.60;;;;;;5049304;28;20410;-55
2022/10/27 07:02:46;;;;;;;15.60;14.60;;;14.90;47.20;;;;;;5048445;28;20230;-56
2022/10/27 07:05:12;;;;;;;16.40;15.40;;;14.90;47.50;;;;;;5046888;28;20418;-55
2022/10/27 07:07:38;;;;;;;15.20;14.20;;;14.90;49.20;;;;;;5048090;28;20225;-58
2022/10/27 07:10:06;;;;;;;14.40;13.60;;;14.90;48.50;;;;;;5049214;28;20180;-56
2022/10/27 07:12:31;;;;;;;15.13;14.10;;;15.00;48.70;;;;;;5047931;28;20426;-57
2022/10/27 07:14:57;;;;;;;15.83;14.80;;;14.90;48.60;;;;;;5046858;28;20411;-54
2022/10/27 07:17:23;;;;;;;15.60;14.60;;;14.90;49.10;;;;;;5045927;28;20223;-56
2022/10/27 07:19:48;;;;;;;14.23;13.53;;;15.00;48.70;;;;;;5047093;28;20180;-56
2022/10/27 07:22:14;;;;;;;14.20;13.40;;;15.00;48.20;;;;;;5049089;28;20180;-54
2022/10/27 07:24:40;;;;;;;15.13;14.13;;;15.10;48.20;;;;;;5047667;28;20176;-55
2022/10/27 07:27:05;;;;;;;15.43;14.33;;;15.10;48.10;;;;;;5047332;28;20180;-54
2022/10/27 07:29:31;;;;;;;15.83;14.53;;;15.10;48.20;;;;;;5048433;28;20282;-55
2022/10/27 07:31:57;;;;;;;17.47;15.70;;;15.20;48.00;;;;;;5045616;28;20186;-54
2022/10/27 07:34:23;;;;;;;15.77;14.87;;;15.20;47.90;;;;;;5047744;28;20262;-55
2022/10/27 07:36:48;;;;;;;17.67;16.47;;;15.10;47.90;;;;;;5048724;28;20552;-55
2022/10/27 07:39:14;;;;;;;16.80;15.60;;;15.20;47.70;;;;;;5050863;28;20448;-53
2022/10/27 07:41:40;;;;;;;16.60;15.40;;;15.20;47.10;;;;;;5046854;28;20285;-55
2022/10/27 07:44:05;;;;;;;18.77;17.07;;;15.30;46.60;;;;;;5046393;28;20556;-55
2022/10/27 07:46:31;;;;;;;17.90;16.07;;;15.30;46.80;;;;;;5050763;28;20176;-53
2022/10/27 07:48:56;;;;;;;16.60;15.40;;;15.30;46.40;;;;;;5048457;28;20183;-55
2022/10/27 07:51:22;;;;;;;18.80;15.73;;;15.40;46.30;;;;;;5048261;28;20183;-55
2022/10/27 07:53:49;;;;;;;17.10;15.73;;;15.40;46.30;;;;;;5048545;28;20176;-55
2022/10/27 07:56:16;;;;;;;16.10;15.20;;;15.40;45.80;;;;;;5049073;28;20202;-55
2022/10/27 07:58:42;;;;;;;16.67;15.40;;;15.40;45.70;;;;;;5050034;28;20458;-59
2022/10/27 08:01:07;;;;;;;18.70;16.87;;;15.40;45.70;;;;;;5046919;28;20440;-54
2022/10/27 08:03:33;;;;;;;17.70;16.20;;;15.30;45.00;;;;;;5050163;28;20214;-55
2022/10/27 08:06:01;;;;;;;16.87;15.97;;;15.30;45.80;;;;;;5049115;28;20178;-54
2022/10/27 08:08:28;;;;;;;18.00;16.47;;;15.30;45.90;;;;;;5050097;28;20793;-54
2022/10/27 08:10:54;;;;;;;16.80;15.80;;;15.30;46.30;;;;;;5049353;28;20770;-60
2022/10/27 08:13:19;;;;;;;16.67;15.67;;;15.30;46.30;;;;;;5049074;28;20419;-60
2022/10/27 08:15:45;;;;;;;17.63;16.10;;;15.40;46.30;;;;;;5049727;28;20188;-59
2022/10/27 08:18:12;;;;;;;15.73;14.67;;;15.40;46.40;;;;;;5049530;28;20214;-59
2022/10/27 08:20:42;;;;;;;16.40;15.30;;;15.50;46.40;;;;;;5050094;28;20425;-59
2022/10/27 08:23:13;;;;;;;15.37;14.47;;;15.50;46.40;;;;;;5049854;28;20421;-59
2022/10/27 08:25:39;;;;;;;17.47;15.70;;;15.50;45.80;;;;;;5049612;28;20414;-59
2022/10/27 08:28:05;;;;;;;15.67;14.37;;;15.50;46.00;;;;;;5050147;28;20994;-59
2022/10/27 08:30:33;;;;;;;16.27;15.17;;;15.50;45.90;;;;;;5049779;28;20430;-59
2022/10/27 08:33:01;;;;;;;15.07;13.67;;;15.60;45.70;;;;;;5051953;28;20768;-59
2022/10/27 08:35:28;;;;;;;15.67;14.70;;;15.60;45.50;;;;;;5053544;28;20901;-59
2022/10/27 08:38:01;;;;;;;15.40;14.60;;;15.70;45.50;;;;;;5053972;28;20827;-59
2022/10/27 08:40:56;;;;;;;14.40;13.60;;;15.70;45.20;;;;;;5053242;28;20413;-59
2022/10/27 08:43:40;;;;;;;15.60;14.50;;;15.70;45.00;;;;;;5053962;28;20437;-54
2022/10/27 08:46:18;;;;;;;15.03;14.03;;;15.80;45.10;;;;;;5053899;28;20410;-54
2022/10/27 08:48:46;;;;;;;16.70;15.13;;;15.80;44.70;;;;;;5053610;28;20406;-55
2022/10/27 08:51:19;;;;;;;16.20;15.03;;;15.80;44.50;;;;;;5047228;28;20423;-53
2022/10/27 08:53:49;;;;;;;16.10;15.00;;;15.80;44.40;;;;;;5033606;28;20411;-54
2022/10/27 08:56:15;;;;;;;16.10;14.80;;;15.90;44.30;;;;;;5033122;28;20414;-54
2022/10/27 08:58:43;;;;;;;16.50;15.50;;;15.90;44.20;;;;;;5032275;28;20596;-55
2022/10/27 09:01:18;;;;;;;15.20;14.40;;;16.00;44.10;;;;;;5034525;28;20462;-58
2022/10/27 09:04:05;;;;;;;15.63;14.07;;;16.10;43.70;;;;;;5032815;28;20468;-59
2022/10/27 09:06:43;;;;;;;14.90;13.77;;;16.30;43.80;;;;;;5033615;28;20418;-59
2022/10/27 09:09:20;;;;;;;15.27;14.27;;;16.40;43.40;;;;;;5032743;28;20819;-59
2022/10/27 09:11:59;;;;;;;16.70;13.40;;;16.50;43.00;;;;;;5032968;28;20423;-59
2022/10/27 09:14:46;;;;;;;15.10;14.13;;;16.60;42.10;;;;;;5034181;28;20411;-59
2022/10/27 09:17:26;;;;;;;15.20;14.17;;;16.60;42.00;;;;;;5032658;28;20455;-59
2022/10/27 09:20:18;;;;;;;15.90;15.00;;;16.70;42.30;;;;;;5037076;28;20428;-59
2022/10/27 09:22:44;;;;;;;15.33;14.33;;;16.70;42.40;;;;;;5089019;28;20936;-59
2022/10/27 09:25:18;;;;;;;14.87;13.77;;;16.80;43.10;;;;;;5070902;28;20414;-59
2022/10/27 09:27:47;;;;;;;15.20;14.17;;;16.80;42.60;;;;;;5073175;28;20265;-59
2022/10/27 09:30:14;;;;;;;14.83;13.53;;;16.80;42.80;;;;;;5071650;28;20532;-59
2022/10/27 09:32:42;;;;;;;15.90;14.60;;;16.80;43.00;;;;;;5073113;28;20478;-59
2022/10/27 09:35:13;;;;;;;14.37;13.47;;;16.80;42.80;;;;;;5072336;28;20425;-59
2022/10/27 09:37:40;;;;;;;14.90;13.70;;;16.80;42.90;;;;;;5072927;28;20508;-59
2022/10/27 09:40:20;;;;;;;15.80;13.70;;;16.90;42.40;;;;;;5043776;28;20430;-58
2022/10/27 09:42:52;;;;;;;16.20;14.90;;;16.90;42.50;;;;;;5051438;28;20422;-58
2022/10/27 09:45:20;;;;;;;16.07;14.93;;;16.90;42.00;;;;;;5051508;28;20422;-58
2022/10/27 09:47:54;;;;;;;14.97;14.00;;;17.00;42.10;;;;;;5052198;28;20414;-59
2022/10/27 09:50:35;;;;;;;16.13;14.87;;;17.10;41.90;;;;;;5053208;28;20406;-59
2022/10/27 09:53:02;;;;;;;14.40;13.70;;;17.10;41.90;;;;;;5052894;28;20415;-58
2022/10/27 09:55:51;;;;;;;13.77;12.83;;;17.20;41.70;;;;;;5050498;28;20414;-58
2022/10/27 09:58:18;;;;;;;13.93;13.23;;;17.20;41.40;;;;;;5052594;28;20466;-58
2022/10/27 10:00:44;;;;;;;14.60;13.70;;;17.30;42.00;;;;;;5049621;28;20417;-59
2022/10/27 10:03:20;;;;;;;14.30;13.60;;;17.40;41.10;;;;;;5050515;28;20411;-59
2022/10/27 10:06:00;;;;;;;14.97;14.07;;;17.40;41.00;;;;;;5049945;28;20183;-60
2022/10/27 10:08:29;;;;;;;15.20;13.87;;;17.40;41.30;;;;;;5051692;28;20802;-58
2022/10/27 10:11:17;;;;;;;14.70;13.80;;;17.50;41.40;;;;;;5051486;28;20418;-59
2022/10/27 10:13:58;;;;;;;15.53;14.50;;;17.50;41.60;;;;;;5052246;28;20426;-59
2022/10/27 10:16:27;;;;;;;14.87;14.00;;;17.60;41.70;;;;;;5052260;28;20419;-59
2022/10/27 10:19:14;;;;;;;15.87;14.53;;;17.60;41.00;;;;;;5052113;28;20476;-59
2022/10/27 10:21:46;;;;;;;13.57;12.97;;;17.60;41.10;;;;;;5051466;28;20410;-59
2022/10/27 10:24:18;;;;;;;15.37;14.40;;;17.70;41.10;;;;;;5052157;28;20512;-59
2022/10/27 10:26:50;;;;;;;16.20;15.10;;;17.70;39.70;;;;;;5051805;28;20894;-59
2022/10/27 10:29:27;;;;;;;14.80;13.80;;;17.90;39.00;;;;;;5051939;28;20477;-59
2022/10/27 10:32:06;;;;;;;14.90;14.00;;;17.90;39.20;;;;;;5051259;28;20414;-59
2022/10/27 10:34:33;;;;;;;14.20;13.50;;;18.00;39.40;;;;;;5052037;28;20770;-59
2022/10/27 10:36:59;;;;;;;15.10;14.10;;;18.00;39.30;;;;;;5050700;28;20510;-59
2022/10/27 10:39:26;;;;;;;15.10;14.27;;;18.10;39.20;;;;;;5051933;28;20739;-59
2022/10/27 10:42:14;;;;;;;16.20;14.40;;;18.20;38.80;;;;;;5050832;28;20176;-59
2022/10/27 10:44:39;;;;;;;15.30;14.30;;;18.20;39.10;;;;;;5050960;28;20425;-59
2022/10/27 10:47:19;;;;;;;14.60;13.90;;;18.20;39.10;;;;;;5049057;28;20407;-59
2022/10/27 10:49:51;;;;;;;15.60;14.40;;;18.20;39.20;;;;;;5051596;28;20459;-59
2022/10/27 10:52:24;;;;;;;14.83;14.00;;;18.20;39.20;;;;;;5050399;28;20411;-59
2022/10/27 10:54:51;;;;;;;15.90;14.27;;;18.20;39.10;;;;;;5049664;28;20479;-59
2022/10/27 10:57:39;;;;;;;16.03;14.17;;;18.40;36.30;;;;;;5049507;28;20460;-59
2022/10/27 11:00:13;;;;;;;14.57;13.83;;;18.50;37.10;;;;;;5050167;28;20872;-59
2022/10/27 11:02:39;;;;;;;14.23;13.60;;;18.50;36.60;;;;;;5050669;28;20923;-59
2022/10/27 11:05:21;;;;;;;13.23;12.23;;;18.60;37.10;;;;;;5048986;28;20499;-59
2022/10/27 11:07:47;;;;;;;12.33;11.63;;;18.60;36.90;;;;;;5051246;28;20559;-59
2022/10/27 11:10:23;;;;;;;12.60;11.67;;;18.70;36.50;;;;;;5050368;28;21504;-59
2022/10/27 11:12:59;;;;;;;12.43;11.73;;;19.00;32.80;;;;;;5047881;28;20429;-59
2022/10/27 11:15:57;;;;;;;13.10;11.97;;;19.10;31.90;;;;;;5048288;28;20476;-59
2022/10/27 11:18:51;;;;;;;13.00;12.23;;;19.20;32.80;;;;;;5047838;28;20470;-59
2022/10/27 11:21:23;;;;;;;14.10;12.50;;;19.20;33.70;;;;;;5050189;28;20419;-59
2022/10/27 11:23:58;;;;;;;13.23;12.20;;;19.10;34.00;;;;;;5048867;28;20422;-59
2022/10/27 11:26:40;;;;;;;13.67;12.23;;;19.10;33.50;;;;;;5049506;28;20436;-59
2022/10/27 11:29:25;;;;;;;13.50;12.60;;;19.10;33.70;;;;;;5048256;28;20444;-58
2022/10/27 11:32:32;;;;;;;13.33;12.63;;;19.10;34.80;;;;;;5049516;28;20986;-59
2022/10/27 11:35:10;;;;;;;14.10;12.80;;;19.20;34.40;;;;;;5047851;28;20449;-60
2022/10/27 11:38:11;;;;;;;12.67;11.87;;;19.20;34.90;;;;;;5047052;28;20457;-59
2022/10/27 11:40:57;;;;;;;13.87;12.90;;;19.20;35.30;;;;;;5049273;28;20442;-59
2022/10/27 11:43:28;;;;;;;13.33;12.43;;;19.20;34.40;;;;;;5047817;28;20414;-59
2022/10/27 11:46:16;;;;;;;15.27;13.80;;;19.20;35.20;;;;;;5047117;28;20414;-59
2022/10/27 11:48:50;;;;;;;12.93;12.13;;;19.20;35.30;;;;;;5047636;28;20911;-59
2022/10/27 11:51:28;;;;;;;11.73;11.13;;;19.20;35.70;;;;;;5046148;28;20421;-59
2022/10/27 11:53:55;;;;;;;12.33;11.73;;;19.20;36.10;;;;;;5049191;28;20413;-59
2022/10/27 11:56:44;;;;;;;13.27;12.37;;;19.20;35.40;;;;;;5046218;28;20472;-60
2022/10/27 11:59:19;;;;;;;13.30;12.60;;;19.30;35.60;;;;;;5045892;28;20889;-58
2022/10/27 12:01:54;;;;;;;13.60;12.60;;;19.30;35.10;;;;;;5027274;28;20794;-57
2022/10/27 12:04:34;;;;;;;12.30;11.70;;;19.30;35.00;;;;;;5027133;28;20509;-57
2022/10/27 12:07:45;;;;;;;13.23;12.30;;;19.30;35.70;;;;;;5027115;28;20923;-57
2022/10/27 12:10:39;;;;;;;12.93;12.30;;;19.40;34.20;;;;;;5032089;28;20419;-57
2022/10/27 12:13:17;;;;;;;13.77;12.63;;;19.50;33.60;;;;;;5048861;28;20410;-59
2022/10/27 12:15:46;;;;;;;13.17;12.30;;;19.50;33.60;;;;;;5047465;28;20418;-59
2022/10/27 12:18:32;;;;;;;13.00;12.50;;;19.50;33.00;;;;;;5032723;28;20535;-59
2022/10/27 12:21:18;;;;;;;14.93;13.63;;;19.70;32.10;;;;;;5047258;28;20454;-59
2022/10/27 12:24:09;;;;;;;12.77;12.10;;;19.90;31.30;;;;;;5032648;28;20415;-59
2022/10/27 12:26:38;;;;;;;12.60;11.93;;;20.10;30.00;;;;;;5031850;28;20461;-59
2022/10/27 12:29:06;;;;;;;12.47;11.77;;;20.10;31.00;;;;;;5029625;28;20476;-59
2022/10/27 12:31:36;;;;;;;12.30;11.70;;;20.10;31.40;;;;;;5047416;28;20431;-56
2022/10/27 12:34:06;;;;;;;12.87;12.07;;;20.10;31.00;;;;;;5047899;28;20423;-57
2022/10/27 12:36:35;;;;;;;12.97;12.17;;;20.10;31.40;;;;;;5048908;28;20450;-57
2022/10/27 12:39:27;;;;;;;14.13;12.87;;;20.00;31.90;;;;;;5031040;28;20462;-57
2022/10/27 12:42:25;;;;;;;12.90;12.10;;;20.00;32.20;;;;;;5050173;28;21007;-57
2022/10/27 12:45:09;;;;;;;13.03;12.30;;;20.00;32.60;;;;;;5050617;28;20407;-57
2022/10/27 12:48:00;;;;;;;14.27;13.30;;;20.00;32.50;;;;;;5033905;28;20438;-60